Terminal Aerodrome Forecast
Issued by NWS Cleveland, OH

Home | Current Version | Previous Version | Graphics & Text | Print | Product List | Glossary On
Versions: 1 2 3 4 5 6 7 8 9 10 11 12 13 14 15 16 17 18 19 20
000
FTUS41 KCLE 251700
TAFYNG
TAF
KYNG 251739Z 2518/2618 24012G20KT P6SM OVC030
     FM252100 25010KT P6SM OVC025
     FM260000 25005KT P6SM OVC018
     FM260600 VRB03KT P6SM BKN100 OVC250
     FM261600 06003KT P6SM BKN250=

USA.gov is the U.S. government's official web portal to all federal, state and local government web resources and services.